Time;durP1;ratioP1;P1;durP2;ratioP2;P2;SDS_P1;SDS_P2;PMS_P1;PMS_P2;Temp;Humidity;BMP_temperature;BMP_pressure;BME280_temperature;BME280_humidity;BME280_pressure;Samples;Min_cycle;Max_cycle;Signal;HPM_P1;HPM_P2
2023/11/07 00:02:17;;;;;;;3.40;2.60;;;12.20;99.90;;;;;;4954043;28;20737;-74
2023/11/07 00:04:43;;;;;;;3.60;2.50;;;12.20;99.90;;;;;;4953830;28;20448;-74
2023/11/07 00:07:09;;;;;;;3.67;3.37;;;12.20;99.90;;;;;;4952140;29;20433;-71
2023/11/07 00:09:36;;;;;;;3.90;2.33;;;12.20;99.90;;;;;;4954742;28;20271;-75
2023/11/07 00:12:02;;;;;;;2.30;2.20;;;12.20;99.90;;;;;;4954268;28;20863;-75
2023/11/07 00:14:29;;;;;;;2.10;2.00;;;12.20;99.90;;;;;;4954307;28;20847;-75
2023/11/07 00:16:55;;;;;;;3.03;2.60;;;12.20;99.90;;;;;;4953837;29;20465;-75
2023/11/07 00:19:21;;;;;;;3.13;2.40;;;12.20;99.90;;;;;;4952790;29;20407;-75
2023/11/07 00:21:47;;;;;;;2.80;2.60;;;12.20;99.90;;;;;;4954230;28;20419;-76
2023/11/07 00:24:14;;;;;;;2.50;2.33;;;12.20;99.90;;;;;;4953944;28;20889;-75
2023/11/07 00:26:40;;;;;;;3.00;2.70;;;12.20;99.90;;;;;;4954307;28;20652;-74
2023/11/07 00:29:07;;;;;;;3.33;3.00;;;12.30;99.90;;;;;;4954402;28;20427;-74
2023/11/07 00:31:33;;;;;;;3.23;2.80;;;12.30;99.90;;;;;;4953770;28;20459;-74
2023/11/07 00:34:00;;;;;;;2.77;2.57;;;12.30;99.90;;;;;;4954389;28;20407;-75
2023/11/07 00:36:26;;;;;;;3.23;2.93;;;12.30;99.90;;;;;;4952743;28;20468;-74
2023/11/07 00:38:52;;;;;;;2.90;2.77;;;12.20;99.90;;;;;;4953025;28;20425;-74
2023/11/07 00:41:19;;;;;;;5.13;2.87;;;12.20;99.90;;;;;;4953750;28;20512;-74
2023/11/07 00:43:47;;;;;;;3.63;3.43;;;12.20;99.90;;;;;;4954210;28;20893;-74
2023/11/07 00:46:13;;;;;;;3.03;2.73;;;12.30;99.90;;;;;;4953664;28;20468;-74
2023/11/07 00:48:39;;;;;;;2.50;2.40;;;12.30;99.90;;;;;;4954130;28;20919;-75
2023/11/07 00:51:05;;;;;;;4.00;2.20;;;12.30;99.90;;;;;;4954229;29;20501;-74
2023/11/07 00:53:31;;;;;;;2.63;2.40;;;12.30;99.90;;;;;;4936324;29;20185;-74
2023/11/07 00:55:56;;;;;;;2.87;2.30;;;12.30;99.90;;;;;;4954129;29;20490;-75
2023/11/07 00:58:22;;;;;;;2.40;2.20;;;12.40;99.90;;;;;;4953681;28;20182;-75
2023/11/07 01:00:49;;;;;;;2.60;2.40;;;12.40;99.90;;;;;;4954137;28;20641;-74
2023/11/07 01:03:14;;;;;;;2.57;2.33;;;12.40;99.90;;;;;;4953486;28;20171;-74
2023/11/07 01:05:40;;;;;;;4.20;2.17;;;12.40;99.90;;;;;;4953321;28;20506;-74
2023/11/07 01:08:06;;;;;;;2.10;2.00;;;12.40;99.90;;;;;;4954106;29;20611;-73
2023/11/07 01:10:35;;;;;;;2.00;1.90;;;12.50;99.90;;;;;;4953260;28;20187;-75
2023/11/07 01:13:00;;;;;;;2.83;2.10;;;12.50;99.90;;;;;;4953682;28;20423;-74
2023/11/07 01:15:26;;;;;;;1.77;1.67;;;12.40;99.90;;;;;;4954274;28;20549;-75
2023/11/07 01:17:52;;;;;;;2.80;2.10;;;12.50;99.90;;;;;;4957614;28;20189;-75
2023/11/07 01:20:18;;;;;;;1.70;1.60;;;12.40;99.90;;;;;;4952150;29;20175;-75
2023/11/07 01:22:44;;;;;;;4.27;1.93;;;12.50;99.90;;;;;;4938246;29;20404;-75
2023/11/07 01:25:10;;;;;;;3.57;2.23;;;12.50;99.90;;;;;;4938236;29;20393;-75
2023/11/07 01:27:36;;;;;;;2.73;2.53;;;12.60;99.90;;;;;;4936351;29;20181;-75
2023/11/07 01:30:04;;;;;;;2.50;2.30;;;12.60;99.90;;;;;;4938116;29;20416;-75
2023/11/07 01:32:31;;;;;;;3.33;2.43;;;12.70;99.90;;;;;;4949848;29;20997;-70
2023/11/07 01:34:57;;;;;;;1.90;1.80;;;12.70;99.90;;;;;;4955930;28;20529;-75
2023/11/07 01:37:23;;;;;;;2.40;2.30;;;12.70;99.90;;;;;;4956396;29;20496;-74
2023/11/07 01:39:49;;;;;;;2.63;2.37;;;12.70;99.90;;;;;;4955870;29;20412;-75
2023/11/07 01:42:15;;;;;;;2.60;2.50;;;12.70;99.90;;;;;;4956495;28;20234;-74
2023/11/07 01:44:52;;;;;;;2.90;2.67;;;12.70;99.90;;;;;;4957012;28;20426;-75
2023/11/07 01:47:21;;;;;;;3.53;2.40;;;12.80;99.90;;;;;;4956216;29;20177;-74
2023/11/07 01:49:47;;;;;;;4.33;2.60;;;12.80;99.90;;;;;;4939837;29;20519;-75
2023/11/07 01:52:16;;;;;;;3.17;2.53;;;12.80;99.90;;;;;;4956811;28;20467;-75
2023/11/07 01:54:44;;;;;;;2.50;2.30;;;12.80;99.90;;;;;;4956677;28;20552;-76
2023/11/07 01:57:11;;;;;;;2.47;2.27;;;12.80;99.90;;;;;;4956829;28;20419;-75
2023/11/07 01:59:38;;;;;;;2.47;2.37;;;12.80;99.90;;;;;;4956168;28;20423;-75
2023/11/07 02:02:09;;;;;;;2.20;2.10;;;12.80;99.90;;;;;;4956434;28;20436;-74
2023/11/07 02:04:35;;;;;;;2.23;2.10;;;12.80;99.90;;;;;;4970950;28;21156;-74
2023/11/07 02:07:00;;;;;;;2.17;2.07;;;12.80;99.90;;;;;;4954841;28;20440;-74
2023/11/07 02:09:26;;;;;;;1.80;1.70;;;12.80;99.90;;;;;;4955947;28;20207;-75
2023/11/07 02:11:52;;;;;;;4.60;2.10;;;12.70;99.90;;;;;;4956662;28;20466;-75
2023/11/07 02:14:36;;;;;;;3.03;2.27;;;12.80;99.90;;;;;;4955700;29;20189;-75
2023/11/07 02:17:03;;;;;;;2.83;2.20;;;12.70;99.90;;;;;;4956865;28;20695;-75
2023/11/07 02:19:30;;;;;;;2.43;2.30;;;12.70;99.90;;;;;;4955796;28;20404;-75
2023/11/07 02:22:01;;;;;;;2.17;2.07;;;12.70;99.90;;;;;;4956206;29;20427;-74
2023/11/07 02:24:30;;;;;;;2.53;1.93;;;12.70;99.90;;;;;;4955987;28;20942;-75
2023/11/07 02:26:56;;;;;;;2.17;2.07;;;12.70;99.90;;;;;;4954050;28;20436;-75
2023/11/07 02:29:22;;;;;;;2.37;2.17;;;12.80;99.90;;;;;;4955556;28;20411;-74
2023/11/07 02:31:50;;;;;;;2.10;2.00;;;12.70;99.90;;;;;;4955902;29;20978;-75
2023/11/07 02:34:16;;;;;;;2.93;2.40;;;12.70;99.90;;;;;;4954848;29;20265;-75
2023/11/07 02:36:42;;;;;;;2.30;2.10;;;12.70;99.90;;;;;;4921859;29;20523;-75
2023/11/07 02:39:12;;;;;;;2.93;2.47;;;12.70;99.90;;;;;;4936870;29;20415;-75
2023/11/07 02:41:43;;;;;;;2.70;2.50;;;12.70;99.90;;;;;;4937329;29;20413;-74
2023/11/07 02:44:11;;;;;;;2.30;2.10;;;12.70;99.90;;;;;;4954794;29;20511;-74
2023/11/07 02:46:40;;;;;;;2.40;2.30;;;12.70;99.90;;;;;;4953809;29;20668;-75
2023/11/07 02:49:06;;;;;;;2.40;2.30;;;12.60;99.90;;;;;;4954437;28;20439;-75
2023/11/07 02:51:32;;;;;;;2.43;2.23;;;12.60;99.90;;;;;;4953706;29;20867;-75
2023/11/07 02:53:58;;;;;;;2.67;2.57;;;12.40;99.90;;;;;;4955939;29;20206;-74
2023/11/07 02:56:28;;;;;;;2.30;2.20;;;12.40;99.90;;;;;;4955182;28;20900;-74
2023/11/07 02:58:54;;;;;;;2.43;2.00;;;12.50;99.90;;;;;;4955634;28;20420;-74
2023/11/07 03:01:21;;;;;;;2.50;2.00;;;12.50;99.90;;;;;;4954649;28;20462;-74
2023/11/07 03:03:48;;;;;;;1.87;1.80;;;12.50;99.90;;;;;;4955579;28;20415;-74
2023/11/07 03:06:14;;;;;;;1.90;1.80;;;12.40;99.90;;;;;;4954601;28;20436;-74
2023/11/07 03:08:40;;;;;;;2.10;1.93;;;12.50;99.90;;;;;;4953748;29;20424;-74
2023/11/07 03:11:06;;;;;;;1.90;1.80;;;12.50;99.90;;;;;;4955170;28;20459;-75
2023/11/07 03:13:34;;;;;;;2.67;2.47;;;12.40;99.90;;;;;;4954828;28;20208;-75
2023/11/07 03:16:03;;;;;;;2.13;2.00;;;12.40;99.90;;;;;;4955114;28;20471;-75
2023/11/07 03:18:29;;;;;;;2.37;1.90;;;12.40;99.90;;;;;;4954533;28;20508;-74
2023/11/07 03:20:55;;;;;;;2.50;1.43;;;12.40;99.90;;;;;;4954933;29;20526;-74
2023/11/07 03:23:22;;;;;;;3.43;1.90;;;12.40;99.90;;;;;;4954690;28;20233;-73
2023/11/07 03:25:47;;;;;;;3.00;1.80;;;12.40;99.90;;;;;;4955540;28;20892;-75
2023/11/07 03:28:13;;;;;;;1.67;1.57;;;12.40;99.90;;;;;;4955172;28;20419;-75
2023/11/07 03:30:39;;;;;;;2.00;1.90;;;12.40;99.90;;;;;;4954453;29;20455;-75
2023/11/07 03:33:05;;;;;;;1.80;1.70;;;12.40;99.90;;;;;;4955050;29;20191;-75
2023/11/07 03:35:31;;;;;;;1.63;1.57;;;12.40;99.90;;;;;;4952968;28;20184;-75
2023/11/07 03:37:57;;;;;;;2.07;1.97;;;12.40;99.90;;;;;;4953624;28;20829;-74
2023/11/07 03:40:22;;;;;;;2.00;1.90;;;12.40;99.90;;;;;;4954447;28;20412;-74
2023/11/07 03:42:48;;;;;;;2.00;1.90;;;12.40;99.90;;;;;;4954569;29;20192;-75
2023/11/07 03:45:14;;;;;;;2.20;2.07;;;12.50;99.90;;;;;;4954943;28;20177;-74
2023/11/07 03:47:40;;;;;;;2.23;2.13;;;12.50;99.90;;;;;;4954264;29;20176;-74
2023/11/07 03:50:07;;;;;;;2.83;2.20;;;12.50;99.90;;;;;;4953571;29;20270;-75
2023/11/07 03:52:32;;;;;;;2.30;2.20;;;12.40;99.90;;;;;;4969072;28;20463;-74
2023/11/07 03:54:58;;;;;;;3.40;2.40;;;12.40;99.90;;;;;;4954517;29;20429;-75
2023/11/07 03:57:25;;;;;;;2.60;2.40;;;12.40;99.90;;;;;;4953947;28;20198;-75
2023/11/07 03:59:51;;;;;;;2.50;2.30;;;12.20;99.90;;;;;;4954967;28;20178;-75
2023/11/07 04:02:17;;;;;;;2.07;2.03;;;12.40;99.90;;;;;;4953988;29;20430;-75
2023/11/07 04:04:43;;;;;;;1.70;1.70;;;12.40;99.90;;;;;;4952902;29;20201;-74
2023/11/07 04:07:10;;;;;;;2.03;1.93;;;12.50;99.90;;;;;;4954299;28;20452;-75
2023/11/07 04:09:36;;;;;;;2.40;1.90;;;12.50;99.90;;;;;;4953969;29;20497;-75
2023/11/07 04:12:02;;;;;;;1.77;1.67;;;12.50;99.90;;;;;;4954154;28;20232;-76
2023/11/07 04:14:28;;;;;;;1.83;1.80;;;12.40;99.90;;;;;;4952800;29;20420;-74
2023/11/07 04:16:55;;;;;;;1.80;1.70;;;12.50;99.90;;;;;;4954392;29;20231;-75
2023/11/07 04:19:21;;;;;;;1.90;1.90;;;12.50;99.90;;;;;;4954512;28;20210;-74
2023/11/07 04:21:47;;;;;;;1.87;1.77;;;12.60;99.90;;;;;;4953374;28;20451;-73
2023/11/07 04:24:14;;;;;;;1.80;1.70;;;12.50;99.90;;;;;;4953575;29;20411;-73
2023/11/07 04:26:40;;;;;;;2.47;1.90;;;12.50;99.90;;;;;;4953411;28;20416;-72
2023/11/07 04:29:06;;;;;;;2.13;2.03;;;12.60;99.90;;;;;;4953985;28;20419;-73
2023/11/07 04:31:33;;;;;;;2.33;2.23;;;12.60;99.90;;;;;;4952875;28;20503;-72
2023/11/07 04:33:59;;;;;;;3.57;2.00;;;12.60;99.90;;;;;;4954357;29;20420;-74
2023/11/07 04:36:25;;;;;;;1.57;1.50;;;12.60;99.90;;;;;;4952597;28;20499;-69
2023/11/07 04:38:51;;;;;;;1.80;1.70;;;12.40;99.90;;;;;;4953190;28;20417;-73
2023/11/07 04:41:16;;;;;;;1.40;1.30;;;12.40;99.90;;;;;;4954032;28;20848;-73
2023/11/07 04:43:44;;;;;;;1.70;1.60;;;12.50;99.90;;;;;;4953601;28;20672;-73
2023/11/07 04:46:13;;;;;;;2.57;1.80;;;12.50;99.90;;;;;;4953127;28;20195;-73
2023/11/07 04:48:38;;;;;;;1.50;1.50;;;12.60;99.90;;;;;;4952490;29;20412;-73
2023/11/07 04:51:05;;;;;;;2.10;1.70;;;12.60;99.90;;;;;;4956112;28;20458;-73
2023/11/07 04:53:32;;;;;;;3.07;2.23;;;12.50;99.90;;;;;;4957511;28;20431;-72
2023/11/07 04:55:58;;;;;;;2.00;1.90;;;12.50;99.90;;;;;;4957963;28;20419;-73
2023/11/07 04:58:27;;;;;;;2.80;2.60;;;12.40;99.90;;;;;;4957962;28;20432;-73
2023/11/07 05:00:53;;;;;;;2.40;2.30;;;12.50;99.90;;;;;;4957843;28;20435;-73
2023/11/07 05:03:19;;;;;;;3.90;2.63;;;12.40;99.90;;;;;;4955814;29;20503;-73
2023/11/07 05:05:45;;;;;;;2.53;2.43;;;12.40;99.90;;;;;;4956992;29;20489;-73
2023/11/07 05:08:11;;;;;;;5.03;3.10;;;12.40;99.90;;;;;;4957545;28;20603;-73
2023/11/07 05:10:37;;;;;;;2.33;2.23;;;12.40;99.90;;;;;;4955929;29;20176;-73
2023/11/07 05:13:02;;;;;;;2.17;2.03;;;12.40;99.90;;;;;;4957146;28;20689;-73
2023/11/07 05:15:28;;;;;;;2.33;2.23;;;12.30;99.90;;;;;;4955474;29;20227;-72
2023/11/07 05:17:54;;;;;;;1.50;1.50;;;12.30;99.90;;;;;;4956092;29;20251;-72
2023/11/07 05:20:20;;;;;;;2.70;2.50;;;12.30;99.90;;;;;;4957544;28;20210;-72
2023/11/07 05:22:45;;;;;;;2.50;2.40;;;12.40;99.90;;;;;;4956061;28;20428;-71
2023/11/07 05:25:11;;;;;;;2.90;2.80;;;12.40;99.90;;;;;;4957051;29;20189;-67
2023/11/07 05:27:37;;;;;;;3.33;3.03;;;12.30;99.90;;;;;;4956784;28;20187;-74
2023/11/07 05:30:04;;;;;;;2.90;2.70;;;12.30;99.90;;;;;;4957094;29;20418;-74
2023/11/07 05:32:29;;;;;;;2.30;2.10;;;12.20;99.90;;;;;;4956622;28;20284;-72
2023/11/07 05:34:56;;;;;;;3.00;1.90;;;12.20;99.90;;;;;;4957126;29;20513;-73
2023/11/07 05:37:22;;;;;;;2.10;2.00;;;12.20;99.90;;;;;;4957213;28;20198;-72
2023/11/07 05:39:47;;;;;;;3.20;2.40;;;12.30;99.90;;;;;;4955398;29;20884;-73
2023/11/07 05:42:13;;;;;;;2.20;2.10;;;12.30;99.90;;;;;;4956855;28;20438;-76
2023/11/07 05:44:39;;;;;;;2.27;2.17;;;12.30;99.90;;;;;;4954475;28;20194;-75
2023/11/07 05:47:06;;;;;;;2.10;2.00;;;12.40;99.90;;;;;;4937776;29;20195;-77
2023/11/07 05:49:32;;;;;;;2.30;2.20;;;12.40;99.90;;;;;;4951865;29;20439;-78
2023/11/07 05:51:58;;;;;;;2.70;2.50;;;12.40;99.90;;;;;;4957067;28;20454;-76
2023/11/07 05:54:24;;;;;;;2.13;2.03;;;12.40;99.90;;;;;;4955768;29;20412;-79
2023/11/07 05:56:50;;;;;;;2.57;2.40;;;12.40;99.90;;;;;;4956224;28;20246;-79
2023/11/07 05:59:18;;;;;;;1.93;1.83;;;12.40;99.90;;;;;;4956609;28;20180;-77
2023/11/07 06:01:44;;;;;;;2.40;2.27;;;12.40;99.90;;;;;;4954301;28;20443;-77
2023/11/07 06:04:28;;;;;;;2.93;2.67;;;12.30;99.90;;;;;;4956361;28;20424;-79
2023/11/07 06:06:55;;;;;;;2.33;2.20;;;12.10;99.90;;;;;;4956725;28;20398;-77
2023/11/07 06:09:20;;;;;;;2.67;2.57;;;12.10;99.90;;;;;;4956552;29;20524;-78
2023/11/07 06:11:46;;;;;;;2.60;2.40;;;12.20;99.90;;;;;;4956078;29;20543;-78
2023/11/07 06:14:12;;;;;;;3.47;3.27;;;12.20;99.90;;;;;;4956501;28;20188;-78
2023/11/07 06:16:40;;;;;;;3.23;3.13;;;12.30;99.90;;;;;;4955096;28;20240;-78
2023/11/07 06:19:06;;;;;;;4.30;4.00;;;12.30;99.90;;;;;;4956457;28;20178;-76
2023/11/07 06:21:32;;;;;;;3.40;3.20;;;12.30;99.90;;;;;;4955533;28;20771;-76
2023/11/07 06:23:57;;;;;;;4.23;3.07;;;12.40;99.90;;;;;;4956202;28;20632;-78
2023/11/07 06:26:23;;;;;;;3.70;3.50;;;12.40;99.90;;;;;;4955907;28;20251;-77
2023/11/07 06:28:49;;;;;;;3.83;3.63;;;12.40;99.90;;;;;;4955640;28;20177;-71
2023/11/07 06:31:27;;;;;;;6.40;5.47;;;12.20;99.90;;;;;;4955829;29;20214;-67
2023/11/07 06:33:53;;;;;;;4.93;4.63;;;12.40;99.90;;;;;;4955259;28;20182;-66
2023/11/07 06:36:19;;;;;;;5.50;5.10;;;12.80;99.90;;;;;;4954253;28;20522;-68
2023/11/07 06:38:45;;;;;;;6.75;6.25;;;13.00;99.90;;;;;;4953843;29;20511;-67
2023/11/07 06:41:11;;;;;;;5.13;4.83;;;13.00;99.90;;;;;;4955459;28;20188;-66
2023/11/07 06:43:39;;;;;;;5.47;5.13;;;13.10;99.90;;;;;;4953701;28;20467;-66
2023/11/07 06:46:05;;;;;;;8.30;7.50;;;13.40;99.90;;;;;;4949023;29;20521;-69
2023/11/07 06:48:31;;;;;;;11.03;6.37;;;13.70;99.90;;;;;;4949526;29;20424;-68
2023/11/07 06:50:57;;;;;;;5.77;5.27;;;14.10;99.90;;;;;;4953595;28;20208;-68
2023/11/07 06:53:28;;;;;;;5.13;4.73;;;14.00;99.90;;;;;;4954112;29;20464;-66
2023/11/07 06:55:54;;;;;;;6.53;6.00;;;14.40;99.90;;;;;;4954731;28;20418;-67
2023/11/07 06:58:20;;;;;;;4.30;3.90;;;14.70;99.90;;;;;;4937937;29;20414;-68
2023/11/07 07:00:46;;;;;;;5.27;4.80;;;14.90;99.90;;;;;;4954277;28;20557;-67
2023/11/07 07:03:11;;;;;;;9.17;6.10;;;15.20;99.90;;;;;;4955486;29;20448;-68
2023/11/07 07:05:37;;;;;;;5.60;5.10;;;15.50;99.90;;;;;;4955279;29;20251;-67
2023/11/07 07:08:03;;;;;;;3.97;3.70;;;15.80;99.90;;;;;;4954505;28;20231;-68
2023/11/07 07:10:29;;;;;;;3.50;2.87;;;16.00;99.90;;;;;;4954285;29;20536;-66
2023/11/07 07:12:56;;;;;;;4.20;3.80;;;16.00;99.90;;;;;;4945943;28;20495;-67
2023/11/07 07:15:22;;;;;;;4.23;3.90;;;16.20;99.90;;;;;;4936036;29;20465;-68
2023/11/07 07:17:47;;;;;;;5.07;4.50;;;16.40;99.90;;;;;;4948866;29;20429;-67
2023/11/07 07:20:13;;;;;;;4.97;4.50;;;16.50;99.90;;;;;;4954974;29;20652;-68
2023/11/07 07:22:41;;;;;;;3.90;3.50;;;16.70;99.90;;;;;;4954320;29;20216;-65
2023/11/07 07:25:08;;;;;;;3.53;3.33;;;16.70;99.90;;;;;;4950649;29;20525;-65
2023/11/07 07:27:34;;;;;;;2.57;2.47;;;16.60;99.90;;;;;;4950795;29;20417;-66
2023/11/07 07:30:01;;;;;;;3.63;3.20;;;16.50;99.90;;;;;;4950120;29;20427;-65
2023/11/07 07:32:28;;;;;;;3.17;2.97;;;16.60;99.90;;;;;;4954956;28;20999;-65
2023/11/07 07:34:55;;;;;;;3.17;3.00;;;16.50;99.90;;;;;;4954402;28;20448;-65
2023/11/07 07:37:23;;;;;;;2.90;2.80;;;16.50;99.90;;;;;;4955047;28;20452;-65
2023/11/07 07:39:49;;;;;;;3.40;3.20;;;16.30;99.90;;;;;;4954459;28;20761;-65
2023/11/07 07:42:17;;;;;;;2.70;2.60;;;16.10;99.90;;;;;;4952820;29;20786;-65
2023/11/07 07:44:43;;;;;;;4.43;3.20;;;16.10;99.90;;;;;;4952802;29;20535;-65
2023/11/07 07:47:10;;;;;;;3.70;3.40;;;16.10;99.90;;;;;;4953521;28;20511;-66
2023/11/07 07:49:37;;;;;;;3.60;3.40;;;16.10;99.90;;;;;;4952800;29;20515;-62
2023/11/07 07:52:08;;;;;;;3.93;3.63;;;16.00;99.90;;;;;;4953387;28;20555;-65
2023/11/07 07:54:37;;;;;;;7.80;7.50;;;15.90;99.90;;;;;;4954554;28;20504;-66
2023/11/07 07:57:08;;;;;;;3.10;3.00;;;15.90;99.90;;;;;;4952707;28;20928;-70
2023/11/07 07:59:35;;;;;;;4.30;4.10;;;15.90;99.90;;;;;;4952087;28;20464;-69
2023/11/07 08:02:01;;;;;;;2.20;2.10;;;15.70;99.90;;;;;;4952055;29;20479;-69
2023/11/07 08:04:31;;;;;;;2.70;2.63;;;15.40;99.90;;;;;;4954697;28;20428;-72
2023/11/07 08:06:57;;;;;;;2.60;2.50;;;15.10;99.90;;;;;;4963556;28;20463;-68
2023/11/07 08:09:24;;;;;;;1.50;1.50;;;14.90;99.90;;;;;;4946223;28;20438;-71
2023/11/07 08:11:53;;;;;;;2.00;1.90;;;14.60;99.90;;;;;;4953723;28;20465;-72
2023/11/07 08:14:19;;;;;;;2.50;2.40;;;14.40;99.90;;;;;;4941145;28;21046;-72
2023/11/07 08:16:45;;;;;;;2.23;2.10;;;14.30;99.90;;;;;;4949670;29;20474;-68
2023/11/07 08:19:12;;;;;;;2.43;2.30;;;14.20;99.90;;;;;;4952819;29;20442;-72
2023/11/07 08:21:39;;;;;;;4.30;4.20;;;14.00;99.90;;;;;;4953964;28;20416;-61
2023/11/07 08:24:08;;;;;;;3.57;3.40;;;13.90;99.90;;;;;;4954405;28;21029;-73
2023/11/07 08:26:36;;;;;;;1.83;1.73;;;13.80;99.90;;;;;;4957626;28;20397;-71
2023/11/07 08:29:06;;;;;;;3.37;3.17;;;13.60;99.90;;;;;;4957184;29;20429;-72
2023/11/07 08:31:39;;;;;;;1.93;1.70;;;13.40;99.90;;;;;;4958147;28;20479;-71
2023/11/07 08:34:09;;;;;;;2.97;2.87;;;13.40;99.90;;;;;;4938070;29;20426;-72
2023/11/07 08:36:37;;;;;;;1.87;1.87;;;13.40;99.90;;;;;;4955771;29;20433;-72
2023/11/07 08:39:04;;;;;;;3.20;3.10;;;13.50;99.90;;;;;;4958075;28;20509;-72
2023/11/07 08:41:30;;;;;;;2.67;2.57;;;13.50;99.90;;;;;;4956197;29;20461;-72
2023/11/07 08:43:55;;;;;;;2.70;2.60;;;13.50;99.90;;;;;;4956746;29;20437;-72
2023/11/07 08:46:23;;;;;;;2.40;2.30;;;13.50;99.90;;;;;;4957610;29;20269;-72
2023/11/07 08:48:50;;;;;;;3.40;3.20;;;13.50;99.90;;;;;;4957316;28;20180;-72
2023/11/07 08:51:17;;;;;;;2.17;2.00;;;13.70;99.90;;;;;;4957752;28;20535;-72
2023/11/07 08:53:44;;;;;;;2.33;2.33;;;13.90;99.90;;;;;;4955679;29;20433;-72
2023/11/07 08:56:12;;;;;;;3.80;3.70;;;14.10;99.90;;;;;;4958000;28;20486;-72
2023/11/07 08:58:39;;;;;;;2.30;2.20;;;14.20;99.90;;;;;;4957149;28;20431;-73
2023/11/07 09:01:05;;;;;;;3.33;2.80;;;14.30;99.90;;;;;;4956581;28;20439;-72
2023/11/07 09:03:31;;;;;;;2.23;2.23;;;14.40;99.90;;;;;;4957946;29;20425;-72
2023/11/07 09:05:57;;;;;;;3.97;3.67;;;14.50;99.90;;;;;;4957285;28;20318;-72
2023/11/07 09:08:23;;;;;;;3.23;3.13;;;14.60;99.90;;;;;;4957967;29;20464;-72
2023/11/07 09:10:48;;;;;;;2.60;2.50;;;14.80;99.90;;;;;;4957089;29;20502;-72
2023/11/07 09:13:14;;;;;;;2.73;2.53;;;14.80;99.90;;;;;;4955442;28;20664;-72
2023/11/07 09:15:43;;;;;;;2.30;2.20;;;14.80;99.90;;;;;;4957439;28;20556;-72
2023/11/07 09:18:09;;;;;;;2.93;2.70;;;14.70;99.90;;;;;;4956024;29;20211;-71
2023/11/07 09:20:34;;;;;;;2.30;2.20;;;14.70;99.90;;;;;;4956243;28;20441;-71
2023/11/07 09:23:00;;;;;;;2.50;2.40;;;14.50;99.90;;;;;;4956632;28;20414;-71
2023/11/07 09:25:26;;;;;;;3.53;2.93;;;14.40;99.90;;;;;;4957357;29;20514;-72
2023/11/07 09:27:52;;;;;;;3.07;2.90;;;14.40;99.90;;;;;;4956808;28;20412;-72
2023/11/07 09:30:18;;;;;;;2.17;2.00;;;14.40;99.90;;;;;;4957203;28;20689;-72
2023/11/07 09:32:44;;;;;;;2.30;2.20;;;14.30;99.90;;;;;;4956702;29;20242;-71
2023/11/07 09:35:11;;;;;;;2.77;2.60;;;14.20;99.90;;;;;;4957285;28;20452;-72
2023/11/07 09:37:39;;;;;;;2.80;2.70;;;14.20;99.90;;;;;;4957077;28;20273;-72
2023/11/07 09:40:12;;;;;;;2.70;2.60;;;14.00;99.90;;;;;;4956246;28;20405;-72
2023/11/07 09:42:41;;;;;;;2.40;2.30;;;14.10;99.90;;;;;;4953803;28;20444;-72
2023/11/07 09:45:14;;;;;;;3.00;2.90;;;14.10;99.90;;;;;;4969601;28;20521;-71
2023/11/07 09:47:41;;;;;;;3.57;3.37;;;14.10;99.90;;;;;;4956810;28;20925;-72
2023/11/07 09:50:10;;;;;;;4.40;4.20;;;14.00;99.90;;;;;;4954819;29;20418;-70
2023/11/07 09:52:38;;;;;;;4.40;3.80;;;13.90;99.90;;;;;;4956086;28;20468;-71
2023/11/07 09:55:08;;;;;;;4.23;4.00;;;13.90;99.90;;;;;;4955885;28;20427;-70
2023/11/07 09:57:55;;;;;;;4.43;4.03;;;13.90;99.90;;;;;;4956580;28;20417;-70
2023/11/07 10:00:23;;;;;;;2.50;2.30;;;13.90;99.90;;;;;;4956888;28;20838;-71
2023/11/07 10:02:50;;;;;;;4.43;4.23;;;13.90;99.90;;;;;;4952711;29;20504;-71
2023/11/07 10:05:19;;;;;;;2.40;2.30;;;13.90;99.90;;;;;;4956387;28;20767;-71
2023/11/07 10:07:51;;;;;;;4.50;4.30;;;13.90;99.90;;;;;;4955311;28;20418;-69
2023/11/07 10:10:18;;;;;;;2.07;1.87;;;14.00;99.90;;;;;;4956631;28;20943;-71
2023/11/07 10:12:50;;;;;;;2.63;2.47;;;14.00;99.90;;;;;;4954571;28;20655;-62
2023/11/07 10:15:20;;;;;;;3.20;3.00;;;14.00;99.90;;;;;;4956242;28;20529;-71
2023/11/07 10:18:00;;;;;;;2.20;1.93;;;14.10;99.90;;;;;;4955965;28;20469;-70
2023/11/07 10:20:28;;;;;;;3.73;3.43;;;14.00;99.90;;;;;;4956461;28;20410;-71
2023/11/07 10:22:54;;;;;;;3.10;2.77;;;14.00;99.90;;;;;;4955801;28;20519;-71
2023/11/07 10:25:27;;;;;;;5.10;4.80;;;14.00;99.90;;;;;;4955554;29;20420;-71
2023/11/07 10:28:02;;;;;;;2.30;2.20;;;14.00;99.90;;;;;;4954928;28;20424;-71
2023/11/07 10:30:48;;;;;;;3.40;3.20;;;14.00;99.90;;;;;;4951593;28;20421;-67
2023/11/07 10:33:27;;;;;;;4.87;4.57;;;14.00;99.90;;;;;;4952151;28;20441;-69
2023/11/07 10:35:55;;;;;;;2.30;2.10;;;14.00;99.90;;;;;;4951387;28;20435;-70
2023/11/07 10:38:24;;;;;;;4.10;3.90;;;14.00;99.90;;;;;;4954618;28;20411;-71
2023/11/07 10:40:50;;;;;;;4.50;4.30;;;14.00;99.90;;;;;;4952538;28;20797;-70
2023/11/07 10:43:36;;;;;;;3.23;3.13;;;13.90;99.90;;;;;;4953783;28;20469;-71
2023/11/07 10:46:04;;;;;;;4.60;4.30;;;13.90;99.90;;;;;;4954324;28;20457;-70
2023/11/07 10:48:38;;;;;;;2.90;2.80;;;13.90;99.90;;;;;;4954956;28;20476;-71
2023/11/07 10:51:05;;;;;;;3.93;2.40;;;13.90;99.90;;;;;;4954719;28;20817;-71
2023/11/07 10:53:38;;;;;;;3.43;3.23;;;13.90;99.90;;;;;;4955861;28;20416;-71
2023/11/07 10:56:18;;;;;;;3.20;2.90;;;13.90;99.90;;;;;;4955219;28;20410;-70
2023/11/07 10:58:59;;;;;;;2.67;2.47;;;13.90;99.90;;;;;;4955770;28;20416;-71
2023/11/07 11:01:27;;;;;;;3.17;3.07;;;13.80;99.90;;;;;;4955416;28;20432;-71
2023/11/07 11:03:54;;;;;;;3.33;3.03;;;13.90;99.90;;;;;;4954177;28;20444;-66
2023/11/07 11:06:23;;;;;;;2.40;2.20;;;13.90;99.90;;;;;;4955232;28;20500;-68
2023/11/07 11:09:06;;;;;;;2.40;2.30;;;13.90;99.90;;;;;;4953588;29;20424;-66
2023/11/07 11:11:33;;;;;;;3.60;3.50;;;13.90;99.90;;;;;;4955483;28;20844;-67
2023/11/07 11:14:00;;;;;;;3.13;2.93;;;13.80;99.90;;;;;;4954842;28;20432;-67
2023/11/07 11:16:26;;;;;;;3.10;3.00;;;13.80;99.90;;;;;;4955123;28;20864;-68
2023/11/07 11:18:56;;;;;;;2.70;2.50;;;13.80;99.90;;;;;;4954018;28;20429;-67
2023/11/07 11:21:38;;;;;;;2.30;2.20;;;13.70;99.90;;;;;;4954773;28;20790;-68
2023/11/07 11:24:14;;;;;;;4.40;2.23;;;13.70;99.90;;;;;;4954462;28;20508;-69
2023/11/07 11:26:52;;;;;;;2.90;2.80;;;13.70;99.90;;;;;;4955039;28;20428;-68
2023/11/07 11:29:29;;;;;;;3.00;2.80;;;13.80;99.90;;;;;;4954702;28;20436;-68
2023/11/07 11:31:58;;;;;;;2.77;2.57;;;13.80;99.90;;;;;;4933183;29;20512;-68
2023/11/07 11:34:29;;;;;;;2.67;2.57;;;13.80;99.90;;;;;;4943247;29;20492;-70
2023/11/07 11:37:02;;;;;;;2.40;2.20;;;13.70;99.90;;;;;;4952416;28;20428;-68
2023/11/07 11:39:31;;;;;;;3.33;2.40;;;13.80;99.90;;;;;;4953308;28;20435;-68
2023/11/07 11:41:58;;;;;;;3.17;2.70;;;13.80;99.90;;;;;;4952787;28;20492;-67
2023/11/07 11:44:27;;;;;;;3.37;2.90;;;13.80;99.90;;;;;;4953123;28;20468;-69
2023/11/07 11:46:55;;;;;;;2.60;2.50;;;13.80;99.90;;;;;;4953640;28;20437;-71
2023/11/07 11:49:23;;;;;;;2.83;2.73;;;13.90;99.90;;;;;;4952582;28;20405;-71
2023/11/07 11:51:51;;;;;;;2.50;2.40;;;13.90;99.90;;;;;;4952312;28;20458;-71
2023/11/07 11:54:22;;;;;;;2.37;2.27;;;13.90;99.90;;;;;;4954081;28;20473;-72
2023/11/07 11:56:51;;;;;;;2.50;2.40;;;13.90;99.90;;;;;;4953960;29;20428;-64
2023/11/07 11:59:20;;;;;;;3.60;3.30;;;14.00;99.90;;;;;;4953983;28;20439;-67
2023/11/07 12:01:49;;;;;;;2.40;2.30;;;14.20;99.90;;;;;;4954009;29;20435;-67
2023/11/07 12:04:36;;;;;;;2.97;2.77;;;14.40;99.90;;;;;;4953942;28;20480;-67
2023/11/07 12:07:08;;;;;;;4.73;4.43;;;14.70;99.90;;;;;;4953218;29;20790;-67
2023/11/07 12:09:35;;;;;;;3.80;3.50;;;15.00;99.90;;;;;;4954625;28;20510;-68
2023/11/07 12:12:01;;;;;;;2.77;2.60;;;15.20;99.90;;;;;;4952657;28;20563;-67
2023/11/07 12:14:28;;;;;;;3.00;2.80;;;15.40;99.90;;;;;;4937126;29;20435;-67
2023/11/07 12:16:59;;;;;;;6.17;3.10;;;15.60;99.90;;;;;;4953263;28;21015;-67
2023/11/07 12:19:25;;;;;;;4.27;2.70;;;15.80;99.90;;;;;;4953438;29;20443;-68
2023/11/07 12:21:53;;;;;;;2.60;2.50;;;15.80;99.90;;;;;;4954196;28;20468;-64
2023/11/07 12:24:21;;;;;;;3.70;3.40;;;15.70;99.90;;;;;;4954378;28;20772;-68
2023/11/07 12:26:47;;;;;;;3.17;2.97;;;15.60;99.90;;;;;;4954457;28;20442;-68
2023/11/07 12:29:14;;;;;;;4.60;2.90;;;15.40;99.90;;;;;;4952300;29;20426;-67
2023/11/07 12:31:40;;;;;;;3.53;2.87;;;15.20;99.90;;;;;;4954421;28;20463;-68
2023/11/07 12:34:06;;;;;;;4.23;3.53;;;15.10;99.90;;;;;;4953241;29;20408;-65
2023/11/07 12:36:38;;;;;;;3.30;3.10;;;15.00;99.90;;;;;;4953008;29;20198;-68
2023/11/07 12:39:06;;;;;;;2.70;2.60;;;15.00;99.90;;;;;;4952084;29;20428;-68
2023/11/07 12:41:33;;;;;;;3.30;3.10;;;15.00;99.90;;;;;;4951885;28;20839;-68
2023/11/07 12:44:10;;;;;;;3.13;2.90;;;15.00;99.90;;;;;;4952454;29;20486;-70
2023/11/07 12:46:39;;;;;;;3.27;3.10;;;14.90;99.90;;;;;;4954416;28;20461;-69
2023/11/07 12:49:05;;;;;;;2.87;2.60;;;14.80;99.90;;;;;;4953573;28;20900;-67
2023/11/07 12:51:35;;;;;;;3.70;2.70;;;14.70;99.90;;;;;;4953630;28;20461;-69